Flight Track Log - Related Links

Times and Time Zones

All times are in EDT time to prevent confusion due to time zone crossing. See the FDX1254 flight status page for this flight to view local times or setup timezone preferences in your user account.

Time Position Orientation Groundspeed Altitude Reporting Facility
EDT Latitude Longitude Course Direction KTS MPH feet Rate Location/Type
Mon 08:53:33 PM 41.7700 -71.6380 300° West 266 306 9,300  Level FlightAware ADS-B
Mon 08:54:14 PM 41.7960 -71.7000 299° West 299 344 11,000 1,953 Climbing FlightAware ADS-B
Mon 08:54:59 PM 41.8290 -71.7790 299° West 353 406 12,100 2,047 Climbing FlightAware ADS-B
Mon 08:55:39 PM 41.8600 -71.8560 298° West 365 420 13,900 2,658 Climbing FlightAware ADS-B
Mon 08:56:18 PM 41.8900 -71.9290 299° West 377 434 15,600 2,753 Climbing FlightAware ADS-B
Mon 08:57:04 PM 41.9300 -72.0320 298° West 370 426 17,800 1,753 Climbing FlightAware ADS-B
Mon 08:57:47 PM 41.9570 -72.1000 298° West 386 444 18,200 1,456 Climbing FlightAware ADS-B
Mon 08:58:47 PM 42.0130 -72.2410 298° West 398 458 20,300 1,313 Climbing FlightAware ADS-B
Mon 08:59:23 PM 42.0400 -72.3080 299° West 398 458 20,300 2,474 Level FlightAware ADS-B
Mon 09:00:24 PM 41.9700 -72.1340 118° Southeast 398 458 24,300 4,082 Climbing FlightAware ADS-B
Mon 09:01:00 PM 42.1340 -72.5470 298° West 427 491 26,900 3,040 Climbing FlightAware ADS-B
Mon 09:01:39 PM 42.1740 -72.6460 299° West 433 498 28,100 1,835 Climbing FlightAware ADS-B
Mon 09:02:25 PM 42.2200 -72.7650 298° West 440 506 29,500 1,333 Climbing FlightAware ADS-B
Mon 09:03:09 PM 42.2540 -72.8540 297° West 437 503 30,100 2,233 Climbing FlightAware ADS-B
Mon 09:03:51 PM 42.2790 -72.9220 296° West 416 479 32,700 1,950 Climbing FlightAware ADS-B
Mon 09:04:29 PM 42.2940 -73.0030 284° West 416 479 32,700 1,604 Level FlightAware ADS-B
Mon 09:05:32 PM 42.2710 -73.1810 260° West 388 447 35,400 1,941 Climbing FlightAware ADS-B
Mon 09:06:11 PM 42.2600 -73.3080 263° West 361 415 36,000 456 Climbing FlightAware ADS-B
Mon 09:06:51 PM 42.2510 -73.4000 263° West 367 422 36,000  Level FlightAware ADS-B
Mon 09:07:35 PM 42.2430 -73.4990 264° West 375 432 36,000  Level FlightAware ADS-B
Mon 09:08:19 PM 42.2330 -73.6020 263° West 380 437 36,000  Level FlightAware ADS-B
Mon 09:08:57 PM 42.2250 -73.6950 263° West 384 442 36,000  Level FlightAware ADS-B
Mon 09:09:35 PM 42.2160 -73.7850 262° West 386 444 36,000  Level FlightAware ADS-B
Mon 09:10:21 PM 42.2100 -73.8520 263° West 388 447 36,000  Level FlightAware ADS-B
Mon 09:11:31 PM 42.1950 -74.0090 263° West 394 453 36,000  Level FlightAware ADS-B
Mon 09:12:08 PM 42.1870 -74.0960 263° West 395 455 36,000  Level FlightAware ADS-B
Mon 09:12:56 PM 42.1780 -74.1960 263° West 395 455 36,000  Level FlightAware ADS-B
Mon 09:13:36 PM 42.1620 -74.3590 263° West 402 463 36,000  Level FlightAware ADS-B
Mon 09:13:58 PM 42.1545 -74.4281 262° West 403 464 36,000  Level FlightAware ADS-B
Mon 09:14:53 PM 42.1409 -74.5645 262° West 403 464 36,000  Level FlightAware ADS-B
Mon 09:15:23 PM 42.1334 -74.6392 262° West 403 464 36,000  Level FlightAware ADS-B
Mon 09:15:54 PM 42.1257 -74.7160 262° West 403 464 36,000  Level FlightAware ADS-B
Mon 09:16:28 PM 42.1171 -74.8002 262° West 403 464 36,000  Level FlightAware ADS-B
Mon 09:16:59 PM 42.1092 -74.8770 262° West 402 463 36,000  Level FlightAware ADS-B
Mon 09:17:31 PM 42.1011 -74.9562 262° West 402 463 36,000  Level FlightAware ADS-B
Mon 09:18:03 PM 42.0940 -75.0250 262° West 401 461 36,000  Level FlightAware ADS-B
Mon 09:18:32 PM 42.0853 -75.1068 262° West 401 461 36,000  Level FlightAware ADS-B
Mon 09:19:03 PM 42.0772 -75.1833 262° West 401 461 36,000  Level FlightAware ADS-B
Mon 09:19:43 PM 42.0664 -75.2793 261° West 398 458 36,000  Level FlightAware ADS-B
Mon 09:20:13 PM 42.0500 -75.3460 252° West 391 450 36,000  Level FlightAware ADS-B
Mon 09:20:22 PM 42.0409 -75.3699 243° Southwest 390 449 36,000  Level FlightAware ADS-B
Mon 09:20:58 PM 42.0095 -75.4462 241° Southwest 389 448 36,000  Level FlightAware ADS-B
Mon 09:21:29 PM 41.9823 -75.5116 241° Southwest 389 448 36,000  Level FlightAware ADS-B
Mon 09:22:06 PM 41.9507 -75.5875 241° Southwest 389 448 36,000  Level FlightAware ADS-B
Mon 09:22:49 PM 41.9210 -75.6600 241° Southwest 388 447 36,000  Level FlightAware ADS-B
Mon 09:23:25 PM 41.8840 -75.7480 241° Southwest 389 448 36,000  Level FlightAware ADS-B
Mon 09:24:03 PM 41.8480 -75.8361 241° Southwest 389 448 36,000  Level FlightAware ADS-B
Mon 09:24:35 PM 41.8203 -75.9031 241° Southwest 388 447 36,000  Level FlightAware ADS-B
Mon 09:25:06 PM 41.7929 -75.9681 241° Southwest 388 447 36,000  Level FlightAware ADS-B
Mon 09:25:36 PM 41.7664 -76.0309 241° Southwest 386 444 36,000  Level FlightAware ADS-B
Mon 09:26:07 PM 41.7397 -76.0955 241° Southwest 386 444 36,000  Level FlightAware ADS-B
Mon 09:26:39 PM 41.7114 -76.1620 240° Southwest 386 444 36,000  Level FlightAware ADS-B
Mon 09:27:10 PM 41.6847 -76.2244 240° Southwest 386 444 36,000  Level FlightAware ADS-B
Mon 09:27:48 PM 41.6512 -76.3052 241° Southwest 386 444 36,000  Level FlightAware ADS-B
Mon 09:28:18 PM 41.6248 -76.3674 240° Southwest 386 444 36,000  Level FlightAware ADS-B
Mon 09:28:49 PM 41.5976 -76.4299 240° Southwest 387 445 36,000  Level FlightAware ADS-B
Mon 09:29:22 PM 41.5685 -76.4986 241° Southwest 387 445 36,000  Level FlightAware ADS-B
Mon 09:29:52 PM 41.5418 -76.5609 240° Southwest 388 447 36,000  Level FlightAware ADS-B
Mon 09:30:22 PM 41.5150 -76.6252 241° Southwest 388 447 36,000  Level FlightAware ADS-B
Mon 09:30:52 PM 41.4878 -76.6874 240° Southwest 388 447 36,000  Level FlightAware ADS-B
Mon 09:31:25 PM 41.4589 -76.7560 241° Southwest 388 447 36,000  Level FlightAware ADS-B
Mon 09:31:57 PM 41.4305 -76.8220 240° Southwest 387 445 36,000  Level FlightAware ADS-B
Mon 09:32:39 PM 41.3929 -76.9089 240° Southwest 387 445 36,000  Level FlightAware ADS-B
Mon 09:33:09 PM 41.3661 -76.9708 240° Southwest 387 445 36,000  Level FlightAware ADS-B
Mon 09:33:53 PM 41.3266 -77.0618 240° Southwest 389 448 36,000  Level FlightAware ADS-B
Mon 09:34:25 PM 41.2978 -77.1280 240° Southwest 389 448 36,000  Level FlightAware ADS-B
Mon 09:35:37 PM 41.2329 -77.2771 240° Southwest 390 449 36,000  Level FlightAware ADS-B
Mon 09:36:10 PM 41.2060 -77.3390 240° Southwest 390 449 36,000  Level FlightAware ADS-B
Mon 09:36:55 PM 41.1660 -77.4280 239° Southwest 390 449 36,000  Level FlightAware ADS-B
Mon 09:37:40 PM 41.1230 -77.5260 240° Southwest 392 451 36,000  Level FlightAware ADS-B
Mon 09:38:25 PM 41.0860 -77.6110 240° Southwest 392 451 36,000  Level FlightAware ADS-B
Mon 09:39:05 PM 41.0450 -77.7040 240° Southwest 393 452 36,000  Level FlightAware ADS-B
Mon 09:39:45 PM 41.0120 -77.7770 239° Southwest 394 453 36,000  Level FlightAware ADS-B
Mon 09:40:30 PM 40.9670 -77.8790 240° Southwest 394 453 36,000  Level FlightAware ADS-B
Mon 09:41:11 PM 40.9310 -77.9600 240° Southwest 395 455 36,000  Level FlightAware ADS-B
Mon 09:41:56 PM 40.9140 -78.0700 258° West 397 457 36,000  Level FlightAware ADS-B
Mon 09:42:35 PM 40.9100 -78.1670 267° West 398 458 36,000  Level FlightAware ADS-B
Mon 09:43:16 PM 40.9080 -78.2620 268° West 398 458 36,000  Level FlightAware ADS-B
Mon 09:44:10 PM 40.9030 -78.3860 267° West 398 458 36,000  Level FlightAware ADS-B
Mon 09:44:55 PM 40.8990 -78.5030 267° West 399 459 36,000  Level FlightAware ADS-B
Mon 09:45:36 PM 40.8950 -78.6020 267° West 399 459 36,000  Level FlightAware ADS-B
Mon 09:46:15 PM 40.8920 -78.6950 268° West 400 460 36,000  Level FlightAware ADS-B
Mon 09:46:55 PM 40.8880 -78.7950 267° West 401 461 36,000  Level FlightAware ADS-B
Mon 09:47:45 PM 40.8830 -78.9200 267° West 402 463 36,000  Level FlightAware ADS-B
Mon 09:48:25 PM 40.8790 -79.0160 267° West 402 463 36,000  Level FlightAware ADS-B
Mon 09:49:10 PM 40.8750 -79.1290 267° West 402 463 36,000  Level FlightAware ADS-B
Mon 09:50:05 PM 40.8690 -79.2640 267° West 403 464 36,000  Level FlightAware ADS-B
Mon 09:50:45 PM 40.8650 -79.3620 267° West 403 464 36,000  Level FlightAware ADS-B
Mon 09:51:30 PM 40.8600 -79.4730 267° West 404 465 36,000  Level FlightAware ADS-B
Mon 09:52:09 PM 40.8560 -79.5720 267° West 405 466 36,000  Level FlightAware ADS-B
Mon 09:52:51 PM 40.8510 -79.6780 266° West 405 466 36,000  Level FlightAware ADS-B
Mon 09:53:35 PM 40.8460 -79.7860 267° West 405 466 36,000  Level FlightAware ADS-B
Mon 09:54:13 PM 40.8410 -79.8800 266° West 405 466 36,000  Level FlightAware ADS-B
Mon 09:54:55 PM 40.8360 -79.9790 266° West 406 467 36,000  Level FlightAware ADS-B
Mon 09:55:50 PM 40.8300 -80.1130 267° West 406 467 36,000  Level FlightAware ADS-B
Mon 09:56:35 PM 40.8260 -80.2220 267° West 407 468 36,000  Level FlightAware ADS-B
Mon 09:57:15 PM 40.8310 -80.3210 274° West 407 468 36,000  Level FlightAware ADS-B
Mon 09:58:00 PM 40.8370 -80.4350 274° West 406 467 36,000  Level FlightAware ADS-B
Mon 09:58:40 PM 40.8420 -80.5410 274° West 405 466 36,000  Level FlightAware ADS-B
Mon 09:59:22 PM 40.8470 -80.6450 274° West 406 467 36,000  Level FlightAware ADS-B
Mon 10:00:06 PM 40.8520 -80.7540 274° West 405 466 36,000  Level FlightAware ADS-B
Mon 10:00:50 PM 40.8580 -80.8650 274° West 405 466 36,000  Level FlightAware ADS-B
Mon 10:01:30 PM 40.8620 -80.9640 273° West 404 465 36,000  Level FlightAware ADS-B
Mon 10:02:14 PM 40.8670 -81.0700 274° West 404 465 36,000  Level FlightAware ADS-B
Mon 10:02:54 PM 40.8710 -81.1710 273° West 405 466 36,000  Level FlightAware ADS-B
Mon 10:03:35 PM 40.8760 -81.2670 274° West 405 466 36,000  Level FlightAware ADS-B
Mon 10:04:10 PM 40.8800 -81.3580 273° West 405 466 36,000  Level FlightAware ADS-B
Mon 10:04:58 PM 40.8850 -81.4750 273° West 407 468 36,000  Level FlightAware ADS-B
Mon 10:05:43 PM 40.8890 -81.5860 273° West 405 466 36,000  Level FlightAware ADS-B
Mon 10:06:20 PM 40.8930 -81.6750 273° West 405 466 36,000  Level FlightAware ADS-B
Mon 10:07:06 PM 40.8960 -81.7910 272° West 406 467 36,000  Level FlightAware ADS-B
Mon 10:07:42 PM 40.8970 -81.8760 271° West 407 468 36,000  Level FlightAware ADS-B
Mon 10:08:29 PM 40.9000 -82.0010 272° West 409 471 36,000  Level FlightAware ADS-B
Mon 10:09:15 PM 40.9010 -82.1050 271° West 409 471 36,000  Level FlightAware ADS-B
Mon 10:09:51 PM 40.9020 -82.1820 271° West 409 471 36,000  Level FlightAware ADS-B
Mon 10:10:39 PM 40.9040 -82.2840 272° West 409 471 36,000  Level FlightAware ADS-B
Mon 10:11:34 PM 40.9050 -82.4010 271° West 409 471 36,000  Level FlightAware ADS-B
Mon 10:12:12 PM 40.9060 -82.4820 271° West 409 471 36,000  Level FlightAware ADS-B
Mon 10:12:49 PM 40.9070 -82.5600 271° West 409 471 36,000 -2,965 Level FlightAware ADS-B
Mon 10:13:37 PM 40.9220 -82.7770 275° West 422 486 31,800 -3,333 Descending FlightAware ADS-B
Mon 10:14:19 PM 40.9250 -82.8860 272° West 430 495 31,000 -578 Descending FlightAware ADS-B
Mon 10:15:00 PM 40.9290 -82.9950 273° West 435 501 31,000  Level FlightAware ADS-B
Mon 10:15:44 PM 40.9330 -83.1120 273° West 434 499 31,000  Level FlightAware ADS-B
Mon 10:16:26 PM 40.9370 -83.2230 273° West 434 499 31,000 -74 Level FlightAware ADS-B
Mon 10:17:05 PM 40.9400 -83.3240 272° West 431 496 30,900 -209 Descending FlightAware ADS-B
Mon 10:17:52 PM 40.9430 -83.4330 272° West 425 489 30,700 -2,965 Descending FlightAware ADS-B
Mon 10:18:30 PM 40.9470 -83.5410 273° West 424 488 26,700 -4,627 Descending FlightAware ADS-B
Mon 10:19:15 PM 40.9510 -83.6590 273° West 416 479 24,300 -3,176 Descending FlightAware ADS-B
Mon 10:19:55 PM 40.9540 -83.7590 272° West 405 466 22,200 -3,220 Descending FlightAware ADS-B
Mon 10:20:37 PM 40.9570 -83.8620 272° West 396 456 19,900 -3,279 Descending FlightAware ADS-B
Mon 10:21:21 PM 40.9600 -83.9670 272° West 387 445 17,500 -3,429 Descending FlightAware ADS-B
Mon 10:22:01 PM 40.9620 -84.0630 272° West 383 441 15,100 -3,429 Descending FlightAware ADS-B
Mon 10:22:45 PM 40.9650 -84.1650 272° West 374 430 12,700 -2,786 Descending FlightAware ADS-B
Mon 10:23:25 PM 40.9670 -84.2530 272° West 368 423 11,200 -1,286 Descending FlightAware ADS-B
Mon 10:24:09 PM 40.9680 -84.3500 271° West 367 422 10,900 -209 Descending FlightAware ADS-B
Mon 10:24:51 PM 40.9700 -84.4380 272° West 306 352 10,900 -357 Level FlightAware ADS-B
Mon 10:25:33 PM 40.9710 -84.5130 271° West 275 316 10,400 -1,029 Descending FlightAware ADS-B
Mon 10:26:01 PM 40.9720 -84.5600 272° West 270 311 9,700 -1,565 Descending FlightAware ADS-B
Mon 10:26:42 PM 40.9710 -84.6260 269° West 269 310 8,600 -1,071 Descending FlightAware ADS-B
Mon 10:27:25 PM 40.9680 -84.6860 266° West 269 310 8,200 -436 Descending FlightAware ADS-B
Mon 10:27:37 PM 40.9670 -84.7030 266° West 269 310 8,200  Level FlightAware ADS-B
Mon 10:28:01 PM 40.9650 -84.7370 266° West 269 310 8,200  Level FlightAware ADS-B
Mon 10:28:50 PM 40.9610 -84.8050 266° West 269 310 8,200 -2,682 Level FlightAware ADS-B
Mon 10:29:26 PM 40.9667 -84.8789 266° West 271 312 4,400 -2,845 Descending Chicago Center
Mon 10:30:27 PM 40.9550 -84.9711 261° West 263 303 3,600 -689 Descending Chicago Center
Mon 10:31:28 PM 40.9397 -85.0497 256° West 242 278 3,000 -829 Descending Chicago Center
Mon 10:32:30 PM 40.9381 -85.1214 268° West 196 226 1,900 -732 Descending Chicago Center
Mon 10:33:31 PM 40.9556 -85.1561 304° West 165 190 1,500 -393 Descending Chicago Center

Login

Don't have an account? Register now (free) for customized features, flight alerts, and more!